sensor_id;sensor_type;location;lat;lon;timestamp;P1;durP1;ratioP1;P2;durP2;ratioP2
34481;SDS011;20720;48.886;9.388;2023-06-14T00:02:00;8.27;;;3.10;;
34481;SDS011;20720;48.886;9.388;2023-06-14T00:04:26;7.35;;;3.05;;
34481;SDS011;20720;48.886;9.388;2023-06-14T00:06:51;4.60;;;2.65;;
34481;SDS011;20720;48.886;9.388;2023-06-14T00:09:17;5.55;;;3.08;;
34481;SDS011;20720;48.886;9.388;2023-06-14T00:11:43;7.40;;;2.72;;
34481;SDS011;20720;48.886;9.388;2023-06-14T00:14:09;6.22;;;2.78;;
34481;SDS011;20720;48.886;9.388;2023-06-14T00:16:34;4.82;;;2.70;;
34481;SDS011;20720;48.886;9.388;2023-06-14T00:19:00;7.20;;;3.05;;
34481;SDS011;20720;48.886;9.388;2023-06-14T00:21:29;4.13;;;2.75;;
34481;SDS011;20720;48.886;9.388;2023-06-14T00:23:55;5.13;;;3.08;;
34481;SDS011;20720;48.886;9.388;2023-06-14T00:26:22;5.72;;;3.00;;
34481;SDS011;20720;48.886;9.388;2023-06-14T00:28:47;4.68;;;3.13;;
34481;SDS011;20720;48.886;9.388;2023-06-14T00:31:12;5.97;;;3.05;;
34481;SDS011;20720;48.886;9.388;2023-06-14T00:33:37;5.68;;;3.03;;
34481;SDS011;20720;48.886;9.388;2023-06-14T00:36:03;4.50;;;3.05;;
34481;SDS011;20720;48.886;9.388;2023-06-14T00:38:28;4.50;;;3.25;;
34481;SDS011;20720;48.886;9.388;2023-06-14T00:40:53;5.30;;;3.05;;
34481;SDS011;20720;48.886;9.388;2023-06-14T00:43:19;4.30;;;2.92;;
34481;SDS011;20720;48.886;9.388;2023-06-14T00:45:44;7.30;;;3.20;;
34481;SDS011;20720;48.886;9.388;2023-06-14T00:48:09;9.70;;;3.08;;
34481;SDS011;20720;48.886;9.388;2023-06-14T00:50:36;6.97;;;2.83;;
34481;SDS011;20720;48.886;9.388;2023-06-14T00:53:03;4.15;;;3.00;;
34481;SDS011;20720;48.886;9.388;2023-06-14T00:55:29;5.30;;;3.03;;
34481;SDS011;20720;48.886;9.388;2023-06-14T00:57:55;4.90;;;3.10;;
34481;SDS011;20720;48.886;9.388;2023-06-14T01:00:21;5.72;;;3.10;;
34481;SDS011;20720;48.886;9.388;2023-06-14T01:02:46;9.88;;;3.42;;
34481;SDS011;20720;48.886;9.388;2023-06-14T01:05:12;6.80;;;3.83;;
34481;SDS011;20720;48.886;9.388;2023-06-14T01:10:47;6.55;;;3.30;;
34481;SDS011;20720;48.886;9.388;2023-06-14T01:13:33;6.55;;;3.45;;
34481;SDS011;20720;48.886;9.388;2023-06-14T01:16:00;5.88;;;4.13;;
34481;SDS011;20720;48.886;9.388;2023-06-14T01:18:27;7.25;;;3.80;;
34481;SDS011;20720;48.886;9.388;2023-06-14T01:20:55;5.57;;;3.78;;
34481;SDS011;20720;48.886;9.388;2023-06-14T01:23:21;6.85;;;3.50;;
34481;SDS011;20720;48.886;9.388;2023-06-14T01:25:47;6.50;;;3.40;;
34481;SDS011;20720;48.886;9.388;2023-06-14T01:28:17;5.95;;;3.55;;
34481;SDS011;20720;48.886;9.388;2023-06-14T01:30:46;4.82;;;3.22;;
34481;SDS011;20720;48.886;9.388;2023-06-14T01:33:17;5.45;;;3.58;;
34481;SDS011;20720;48.886;9.388;2023-06-14T01:35:46;5.03;;;2.63;;
34481;SDS011;20720;48.886;9.388;2023-06-14T01:38:13;6.10;;;2.65;;
34481;SDS011;20720;48.886;9.388;2023-06-14T01:40:39;4.85;;;3.30;;
34481;SDS011;20720;48.886;9.388;2023-06-14T01:43:07;5.18;;;3.08;;
34481;SDS011;20720;48.886;9.388;2023-06-14T01:45:33;7.20;;;3.28;;
34481;SDS011;20720;48.886;9.388;2023-06-14T01:47:59;3.75;;;2.88;;
34481;SDS011;20720;48.886;9.388;2023-06-14T01:50:29;5.45;;;2.92;;
34481;SDS011;20720;48.886;9.388;2023-06-14T01:52:55;7.70;;;3.10;;
34481;SDS011;20720;48.886;9.388;2023-06-14T01:55:20;5.80;;;3.28;;
34481;SDS011;20720;48.886;9.388;2023-06-14T01:57:46;6.15;;;3.20;;
34481;SDS011;20720;48.886;9.388;2023-06-14T02:00:12;6.40;;;3.33;;
34481;SDS011;20720;48.886;9.388;2023-06-14T02:02:39;9.80;;;3.30;;
34481;SDS011;20720;48.886;9.388;2023-06-14T02:05:05;6.15;;;3.17;;
34481;SDS011;20720;48.886;9.388;2023-06-14T02:07:31;6.13;;;3.20;;
34481;SDS011;20720;48.886;9.388;2023-06-14T02:09:56;7.85;;;3.33;;
34481;SDS011;20720;48.886;9.388;2023-06-14T02:12:21;5.65;;;3.38;;
34481;SDS011;20720;48.886;9.388;2023-06-14T02:14:46;5.65;;;3.45;;
34481;SDS011;20720;48.886;9.388;2023-06-14T02:17:13;5.43;;;3.38;;
34481;SDS011;20720;48.886;9.388;2023-06-14T02:19:38;5.57;;;3.22;;
34481;SDS011;20720;48.886;9.388;2023-06-14T02:22:04;6.40;;;3.22;;
34481;SDS011;20720;48.886;9.388;2023-06-14T02:24:29;6.25;;;3.45;;
34481;SDS011;20720;48.886;9.388;2023-06-14T02:26:54;5.75;;;3.50;;
34481;SDS011;20720;48.886;9.388;2023-06-14T02:29:20;6.18;;;3.40;;
34481;SDS011;20720;48.886;9.388;2023-06-14T02:31:46;5.13;;;3.28;;
34481;SDS011;20720;48.886;9.388;2023-06-14T02:34:13;5.63;;;3.13;;
34481;SDS011;20720;48.886;9.388;2023-06-14T02:36:38;7.72;;;4.15;;
34481;SDS011;20720;48.886;9.388;2023-06-14T02:39:06;5.43;;;3.72;;
34481;SDS011;20720;48.886;9.388;2023-06-14T02:41:32;8.50;;;5.00;;
34481;SDS011;20720;48.886;9.388;2023-06-14T02:43:57;5.88;;;3.72;;
34481;SDS011;20720;48.886;9.388;2023-06-14T02:46:23;6.40;;;4.00;;
34481;SDS011;20720;48.886;9.388;2023-06-14T02:48:49;5.80;;;3.63;;
34481;SDS011;20720;48.886;9.388;2023-06-14T02:51:14;5.65;;;3.75;;
34481;SDS011;20720;48.886;9.388;2023-06-14T02:53:39;5.78;;;3.42;;
34481;SDS011;20720;48.886;9.388;2023-06-14T02:56:05;8.40;;;3.58;;
34481;SDS011;20720;48.886;9.388;2023-06-14T02:58:30;6.93;;;3.60;;
34481;SDS011;20720;48.886;9.388;2023-06-14T03:00:56;7.75;;;4.07;;
34481;SDS011;20720;48.886;9.388;2023-06-14T03:03:21;7.13;;;4.22;;
34481;SDS011;20720;48.886;9.388;2023-06-14T03:05:49;9.27;;;3.50;;
34481;SDS011;20720;48.886;9.388;2023-06-14T03:08:16;6.43;;;3.45;;
34481;SDS011;20720;48.886;9.388;2023-06-14T03:10:47;4.78;;;3.10;;
34481;SDS011;20720;48.886;9.388;2023-06-14T03:13:13;5.22;;;3.15;;
34481;SDS011;20720;48.886;9.388;2023-06-14T03:15:38;6.07;;;3.53;;
34481;SDS011;20720;48.886;9.388;2023-06-14T03:18:06;5.32;;;3.47;;
34481;SDS011;20720;48.886;9.388;2023-06-14T03:20:33;6.18;;;3.28;;
34481;SDS011;20720;48.886;9.388;2023-06-14T03:23:01;6.63;;;3.67;;
34481;SDS011;20720;48.886;9.388;2023-06-14T03:25:27;5.88;;;3.78;;
34481;SDS011;20720;48.886;9.388;2023-06-14T03:27:56;4.80;;;3.10;;
34481;SDS011;20720;48.886;9.388;2023-06-14T03:30:22;4.97;;;3.00;;
34481;SDS011;20720;48.886;9.388;2023-06-14T03:32:47;4.40;;;2.85;;
34481;SDS011;20720;48.886;9.388;2023-06-14T03:35:12;4.82;;;3.05;;
34481;SDS011;20720;48.886;9.388;2023-06-14T03:37:42;5.15;;;3.35;;
34481;SDS011;20720;48.886;9.388;2023-06-14T03:40:08;6.57;;;3.60;;
34481;SDS011;20720;48.886;9.388;2023-06-14T03:42:33;5.53;;;3.13;;
34481;SDS011;20720;48.886;9.388;2023-06-14T03:44:59;5.00;;;3.13;;
34481;SDS011;20720;48.886;9.388;2023-06-14T03:47:24;5.38;;;3.60;;
34481;SDS011;20720;48.886;9.388;2023-06-14T03:49:49;6.43;;;3.60;;
34481;SDS011;20720;48.886;9.388;2023-06-14T03:52:14;5.45;;;3.28;;
34481;SDS011;20720;48.886;9.388;2023-06-14T03:54:41;5.57;;;3.25;;
34481;SDS011;20720;48.886;9.388;2023-06-14T03:57:08;6.80;;;3.70;;
34481;SDS011;20720;48.886;9.388;2023-06-14T03:59:33;5.15;;;3.10;;
34481;SDS011;20720;48.886;9.388;2023-06-14T04:01:58;6.28;;;3.38;;
34481;SDS011;20720;48.886;9.388;2023-06-14T04:04:24;5.68;;;3.38;;
34481;SDS011;20720;48.886;9.388;2023-06-14T04:06:53;8.27;;;3.50;;
34481;SDS011;20720;48.886;9.388;2023-06-14T04:09:19;6.47;;;3.40;;
34481;SDS011;20720;48.886;9.388;2023-06-14T04:11:44;6.60;;;3.72;;
34481;SDS011;20720;48.886;9.388;2023-06-14T04:14:09;5.47;;;3.25;;
34481;SDS011;20720;48.886;9.388;2023-06-14T04:16:35;5.57;;;3.55;;
34481;SDS011;20720;48.886;9.388;2023-06-14T04:19:00;5.50;;;3.38;;
34481;SDS011;20720;48.886;9.388;2023-06-14T04:21:25;6.57;;;3.80;;
34481;SDS011;20720;48.886;9.388;2023-06-14T04:23:52;5.85;;;3.47;;
34481;SDS011;20720;48.886;9.388;2023-06-14T04:26:19;7.32;;;3.83;;
34481;SDS011;20720;48.886;9.388;2023-06-14T04:28:45;8.10;;;3.65;;
34481;SDS011;20720;48.886;9.388;2023-06-14T04:31:12;5.93;;;3.65;;
34481;SDS011;20720;48.886;9.388;2023-06-14T04:33:37;5.20;;;3.47;;
34481;SDS011;20720;48.886;9.388;2023-06-14T04:36:11;6.10;;;3.70;;
34481;SDS011;20720;48.886;9.388;2023-06-14T04:38:38;6.63;;;3.90;;
34481;SDS011;20720;48.886;9.388;2023-06-14T04:41:03;6.60;;;4.07;;
34481;SDS011;20720;48.886;9.388;2023-06-14T04:43:29;6.65;;;3.85;;
34481;SDS011;20720;48.886;9.388;2023-06-14T04:45:54;7.88;;;4.07;;
34481;SDS011;20720;48.886;9.388;2023-06-14T04:48:21;5.82;;;3.60;;
34481;SDS011;20720;48.886;9.388;2023-06-14T04:50:47;4.50;;;3.20;;
34481;SDS011;20720;48.886;9.388;2023-06-14T04:53:13;6.88;;;3.65;;
34481;SDS011;20720;48.886;9.388;2023-06-14T04:55:38;6.85;;;3.55;;
34481;SDS011;20720;48.886;9.388;2023-06-14T04:58:03;9.23;;;3.83;;
34481;SDS011;20720;48.886;9.388;2023-06-14T05:00:29;7.05;;;4.03;;
34481;SDS011;20720;48.886;9.388;2023-06-14T05:02:55;6.10;;;3.50;;
34481;SDS011;20720;48.886;9.388;2023-06-14T05:05:21;7.78;;;3.25;;
34481;SDS011;20720;48.886;9.388;2023-06-14T05:07:47;5.90;;;3.85;;
34481;SDS011;20720;48.886;9.388;2023-06-14T05:10:12;6.60;;;3.50;;
34481;SDS011;20720;48.886;9.388;2023-06-14T05:12:38;7.00;;;3.60;;
34481;SDS011;20720;48.886;9.388;2023-06-14T05:15:03;5.00;;;3.53;;
34481;SDS011;20720;48.886;9.388;2023-06-14T05:17:29;7.38;;;4.43;;
34481;SDS011;20720;48.886;9.388;2023-06-14T05:19:55;6.70;;;3.97;;
34481;SDS011;20720;48.886;9.388;2023-06-14T05:22:21;8.95;;;3.60;;
34481;SDS011;20720;48.886;9.388;2023-06-14T05:24:47;6.72;;;3.95;;
34481;SDS011;20720;48.886;9.388;2023-06-14T05:27:13;6.68;;;3.35;;
34481;SDS011;20720;48.886;9.388;2023-06-14T05:29:38;7.88;;;3.92;;
34481;SDS011;20720;48.886;9.388;2023-06-14T05:32:03;7.85;;;4.10;;
34481;SDS011;20720;48.886;9.388;2023-06-14T05:34:29;5.68;;;3.75;;
34481;SDS011;20720;48.886;9.388;2023-06-14T05:36:54;5.72;;;3.63;;
34481;SDS011;20720;48.886;9.388;2023-06-14T05:39:20;7.20;;;3.70;;
34481;SDS011;20720;48.886;9.388;2023-06-14T05:41:45;5.93;;;3.50;;
34481;SDS011;20720;48.886;9.388;2023-06-14T05:44:10;5.63;;;3.70;;
34481;SDS011;20720;48.886;9.388;2023-06-14T05:46:36;9.93;;;4.03;;
34481;SDS011;20720;48.886;9.388;2023-06-14T05:49:01;7.45;;;3.75;;
34481;SDS011;20720;48.886;9.388;2023-06-14T05:51:26;5.93;;;3.60;;
34481;SDS011;20720;48.886;9.388;2023-06-14T05:53:52;6.38;;;3.47;;
34481;SDS011;20720;48.886;9.388;2023-06-14T05:56:17;6.55;;;3.60;;
34481;SDS011;20720;48.886;9.388;2023-06-14T05:58:43;5.13;;;3.45;;
34481;SDS011;20720;48.886;9.388;2023-06-14T06:01:09;6.10;;;3.38;;
34481;SDS011;20720;48.886;9.388;2023-06-14T06:03:34;5.55;;;3.17;;
34481;SDS011;20720;48.886;9.388;2023-06-14T06:06:00;5.63;;;3.55;;
34481;SDS011;20720;48.886;9.388;2023-06-14T06:08:26;7.13;;;3.53;;
34481;SDS011;20720;48.886;9.388;2023-06-14T06:10:51;5.22;;;3.00;;
34481;SDS011;20720;48.886;9.388;2023-06-14T06:13:17;8.05;;;3.20;;
34481;SDS011;20720;48.886;9.388;2023-06-14T06:15:42;5.38;;;3.20;;
34481;SDS011;20720;48.886;9.388;2023-06-14T06:18:07;4.57;;;3.17;;
34481;SDS011;20720;48.886;9.388;2023-06-14T06:20:32;4.90;;;2.90;;
34481;SDS011;20720;48.886;9.388;2023-06-14T06:22:58;8.38;;;3.47;;
34481;SDS011;20720;48.886;9.388;2023-06-14T06:25:23;6.10;;;3.60;;
34481;SDS011;20720;48.886;9.388;2023-06-14T06:27:50;9.95;;;3.50;;
34481;SDS011;20720;48.886;9.388;2023-06-14T06:30:16;7.57;;;3.00;;
34481;SDS011;20720;48.886;9.388;2023-06-14T06:32:41;5.07;;;2.63;;
34481;SDS011;20720;48.886;9.388;2023-06-14T06:35:07;6.18;;;3.10;;
34481;SDS011;20720;48.886;9.388;2023-06-14T06:37:33;5.30;;;2.95;;
34481;SDS011;20720;48.886;9.388;2023-06-14T06:39:59;7.43;;;3.15;;
34481;SDS011;20720;48.886;9.388;2023-06-14T06:42:24;7.40;;;3.30;;
34481;SDS011;20720;48.886;9.388;2023-06-14T06:44:49;6.60;;;2.70;;
34481;SDS011;20720;48.886;9.388;2023-06-14T06:47:15;6.40;;;3.20;;
34481;SDS011;20720;48.886;9.388;2023-06-14T06:49:40;4.03;;;3.03;;
34481;SDS011;20720;48.886;9.388;2023-06-14T06:52:06;6.45;;;3.20;;
34481;SDS011;20720;48.886;9.388;2023-06-14T06:54:32;5.18;;;2.78;;
34481;SDS011;20720;48.886;9.388;2023-06-14T06:56:58;5.53;;;2.55;;
34481;SDS011;20720;48.886;9.388;2023-06-14T06:59:23;3.35;;;2.58;;
34481;SDS011;20720;48.886;9.388;2023-06-14T07:01:49;4.60;;;2.58;;
34481;SDS011;20720;48.886;9.388;2023-06-14T07:04:15;4.18;;;2.58;;
34481;SDS011;20720;48.886;9.388;2023-06-14T07:06:41;4.47;;;2.70;;
34481;SDS011;20720;48.886;9.388;2023-06-14T07:09:07;5.03;;;2.38;;
34481;SDS011;20720;48.886;9.388;2023-06-14T07:11:37;2.95;;;2.30;;
34481;SDS011;20720;48.886;9.388;2023-06-14T07:14:02;5.78;;;3.10;;
34481;SDS011;20720;48.886;9.388;2023-06-14T07:16:27;8.50;;;3.27;;
34481;SDS011;20720;48.886;9.388;2023-06-14T07:18:53;4.60;;;2.90;;
34481;SDS011;20720;48.886;9.388;2023-06-14T07:21:18;5.50;;;2.63;;
34481;SDS011;20720;48.886;9.388;2023-06-14T07:23:43;4.83;;;2.73;;
34481;SDS011;20720;48.886;9.388;2023-06-14T07:26:09;3.50;;;2.42;;
34481;SDS011;20720;48.886;9.388;2023-06-14T07:28:34;4.45;;;2.70;;
34481;SDS011;20720;48.886;9.388;2023-06-14T07:30:59;4.10;;;2.85;;
34481;SDS011;20720;48.886;9.388;2023-06-14T07:33:24;4.73;;;2.77;;
34481;SDS011;20720;48.886;9.388;2023-06-14T07:35:50;7.37;;;2.70;;
34481;SDS011;20720;48.886;9.388;2023-06-14T07:38:15;4.28;;;2.95;;
34481;SDS011;20720;48.886;9.388;2023-06-14T07:40:40;8.88;;;2.58;;
34481;SDS011;20720;48.886;9.388;2023-06-14T07:43:05;7.47;;;2.90;;
34481;SDS011;20720;48.886;9.388;2023-06-14T07:45:31;6.03;;;2.70;;
34481;SDS011;20720;48.886;9.388;2023-06-14T07:47:56;3.40;;;2.30;;
34481;SDS011;20720;48.886;9.388;2023-06-14T07:50:21;5.20;;;2.80;;
34481;SDS011;20720;48.886;9.388;2023-06-14T07:52:47;4.20;;;2.92;;
34481;SDS011;20720;48.886;9.388;2023-06-14T07:55:13;6.22;;;3.13;;
34481;SDS011;20720;48.886;9.388;2023-06-14T07:57:40;5.05;;;2.85;;
34481;SDS011;20720;48.886;9.388;2023-06-14T08:00:05;5.67;;;2.80;;
34481;SDS011;20720;48.886;9.388;2023-06-14T08:02:31;4.25;;;2.47;;
34481;SDS011;20720;48.886;9.388;2023-06-14T08:04:56;4.68;;;2.45;;
34481;SDS011;20720;48.886;9.388;2023-06-14T08:07:22;7.15;;;2.85;;
34481;SDS011;20720;48.886;9.388;2023-06-14T08:09:47;4.60;;;2.42;;
34481;SDS011;20720;48.886;9.388;2023-06-14T08:12:12;4.10;;;2.63;;
34481;SDS011;20720;48.886;9.388;2023-06-14T08:14:39;4.53;;;2.38;;
34481;SDS011;20720;48.886;9.388;2023-06-14T08:17:04;5.82;;;2.83;;
34481;SDS011;20720;48.886;9.388;2023-06-14T08:19:30;4.35;;;2.20;;
34481;SDS011;20720;48.886;9.388;2023-06-14T08:21:56;7.43;;;2.70;;
34481;SDS011;20720;48.886;9.388;2023-06-14T08:24:21;6.03;;;2.65;;
34481;SDS011;20720;48.886;9.388;2023-06-14T08:26:49;4.45;;;2.45;;
34481;SDS011;20720;48.886;9.388;2023-06-14T08:29:15;4.03;;;2.60;;
34481;SDS011;20720;48.886;9.388;2023-06-14T08:31:40;5.18;;;2.60;;
34481;SDS011;20720;48.886;9.388;2023-06-14T08:34:05;3.60;;;2.35;;
34481;SDS011;20720;48.886;9.388;2023-06-14T08:36:31;4.05;;;2.20;;
34481;SDS011;20720;48.886;9.388;2023-06-14T08:38:56;3.13;;;2.25;;
34481;SDS011;20720;48.886;9.388;2023-06-14T08:41:21;5.10;;;2.85;;
34481;SDS011;20720;48.886;9.388;2023-06-14T08:43:49;3.40;;;2.33;;
34481;SDS011;20720;48.886;9.388;2023-06-14T08:46:14;3.65;;;2.20;;
34481;SDS011;20720;48.886;9.388;2023-06-14T08:48:44;7.20;;;2.33;;
34481;SDS011;20720;48.886;9.388;2023-06-14T08:51:11;6.65;;;2.03;;
34481;SDS011;20720;48.886;9.388;2023-06-14T08:53:39;3.92;;;2.47;;
34481;SDS011;20720;48.886;9.388;2023-06-14T08:56:07;4.28;;;2.10;;
34481;SDS011;20720;48.886;9.388;2023-06-14T08:58:44;5.00;;;2.30;;
34481;SDS011;20720;48.886;9.388;2023-06-14T09:01:10;5.20;;;2.53;;
34481;SDS011;20720;48.886;9.388;2023-06-14T09:03:39;6.05;;;2.58;;
34481;SDS011;20720;48.886;9.388;2023-06-14T09:06:05;7.53;;;2.30;;
34481;SDS011;20720;48.886;9.388;2023-06-14T09:08:33;3.97;;;2.30;;
34481;SDS011;20720;48.886;9.388;2023-06-14T09:11:00;3.63;;;2.55;;
34481;SDS011;20720;48.886;9.388;2023-06-14T09:13:26;3.65;;;2.30;;
34481;SDS011;20720;48.886;9.388;2023-06-14T09:15:52;2.97;;;2.30;;
34481;SDS011;20720;48.886;9.388;2023-06-14T09:18:17;4.90;;;3.10;;
34481;SDS011;20720;48.886;9.388;2023-06-14T09:20:45;4.78;;;2.67;;
34481;SDS011;20720;48.886;9.388;2023-06-14T09:23:12;6.15;;;2.33;;
34481;SDS011;20720;48.886;9.388;2023-06-14T09:25:45;5.60;;;2.10;;
34481;SDS011;20720;48.886;9.388;2023-06-14T09:28:11;9.38;;;2.33;;
34481;SDS011;20720;48.886;9.388;2023-06-14T09:30:37;3.63;;;2.40;;
34481;SDS011;20720;48.886;9.388;2023-06-14T09:33:03;4.05;;;2.10;;
34481;SDS011;20720;48.886;9.388;2023-06-14T09:35:28;4.50;;;2.30;;
34481;SDS011;20720;48.886;9.388;2023-06-14T09:37:56;8.23;;;2.30;;
34481;SDS011;20720;48.886;9.388;2023-06-14T09:40:21;4.05;;;2.47;;
34481;SDS011;20720;48.886;9.388;2023-06-14T09:42:47;3.65;;;2.25;;
34481;SDS011;20720;48.886;9.388;2023-06-14T09:45:12;4.10;;;2.00;;
34481;SDS011;20720;48.886;9.388;2023-06-14T09:47:38;3.60;;;2.20;;
34481;SDS011;20720;48.886;9.388;2023-06-14T09:50:04;3.83;;;2.13;;
34481;SDS011;20720;48.886;9.388;2023-06-14T09:52:30;3.28;;;2.00;;
34481;SDS011;20720;48.886;9.388;2023-06-14T09:54:56;3.47;;;2.20;;
34481;SDS011;20720;48.886;9.388;2023-06-14T09:57:24;5.05;;;2.08;;
34481;SDS011;20720;48.886;9.388;2023-06-14T09:59:52;4.25;;;2.15;;
34481;SDS011;20720;48.886;9.388;2023-06-14T10:02:22;4.40;;;1.95;;
34481;SDS011;20720;48.886;9.388;2023-06-14T10:04:53;4.70;;;2.20;;
34481;SDS011;20720;48.886;9.388;2023-06-14T10:07:25;3.95;;;2.00;;
34481;SDS011;20720;48.886;9.388;2023-06-14T10:09:55;2.70;;;2.05;;
34481;SDS011;20720;48.886;9.388;2023-06-14T10:12:20;3.00;;;2.00;;
34481;SDS011;20720;48.886;9.388;2023-06-14T10:14:49;5.20;;;2.15;;
34481;SDS011;20720;48.886;9.388;2023-06-14T10:17:18;6.20;;;1.90;;
34481;SDS011;20720;48.886;9.388;2023-06-14T10:19:55;3.58;;;2.08;;
34481;SDS011;20720;48.886;9.388;2023-06-14T10:22:29;3.33;;;1.80;;
34481;SDS011;20720;48.886;9.388;2023-06-14T10:25:01;4.95;;;2.10;;
34481;SDS011;20720;48.886;9.388;2023-06-14T10:27:27;3.58;;;2.17;;
34481;SDS011;20720;48.886;9.388;2023-06-14T10:32:17;4.53;;;2.17;;
34481;SDS011;20720;48.886;9.388;2023-06-14T10:34:44;3.60;;;2.20;;
34481;SDS011;20720;48.886;9.388;2023-06-14T10:37:13;7.00;;;1.90;;
34481;SDS011;20720;48.886;9.388;2023-06-14T10:39:45;5.28;;;2.20;;
34481;SDS011;20720;48.886;9.388;2023-06-14T10:42:11;5.22;;;2.13;;
34481;SDS011;20720;48.886;9.388;2023-06-14T10:44:37;3.42;;;2.00;;
34481;SDS011;20720;48.886;9.388;2023-06-14T10:47:07;4.18;;;1.98;;
34481;SDS011;20720;48.886;9.388;2023-06-14T10:49:44;4.90;;;1.77;;
34481;SDS011;20720;48.886;9.388;2023-06-14T10:57:31;3.45;;;1.90;;
34481;SDS011;20720;48.886;9.388;2023-06-14T10:59:58;3.65;;;2.05;;
34481;SDS011;20720;48.886;9.388;2023-06-14T11:02:45;4.63;;;2.10;;
34481;SDS011;20720;48.886;9.388;2023-06-14T11:05:16;5.00;;;2.28;;
34481;SDS011;20720;48.886;9.388;2023-06-14T11:10:52;4.65;;;2.25;;
34481;SDS011;20720;48.886;9.388;2023-06-14T11:13:24;2.70;;;1.63;;
34481;SDS011;20720;48.886;9.388;2023-06-14T11:15:50;4.00;;;2.08;;
34481;SDS011;20720;48.886;9.388;2023-06-14T11:18:18;3.22;;;1.92;;
34481;SDS011;20720;48.886;9.388;2023-06-14T11:20:45;3.67;;;1.90;;
34481;SDS011;20720;48.886;9.388;2023-06-14T11:23:11;4.35;;;2.00;;
34481;SDS011;20720;48.886;9.388;2023-06-14T11:25:37;3.30;;;2.20;;
34481;SDS011;20720;48.886;9.388;2023-06-14T11:28:02;4.78;;;2.10;;
34481;SDS011;20720;48.886;9.388;2023-06-14T11:30:27;4.82;;;2.20;;
34481;SDS011;20720;48.886;9.388;2023-06-14T11:32:53;2.97;;;1.90;;
34481;SDS011;20720;48.886;9.388;2023-06-14T11:35:21;5.80;;;2.05;;
34481;SDS011;20720;48.886;9.388;2023-06-14T11:37:53;2.50;;;1.90;;
34481;SDS011;20720;48.886;9.388;2023-06-14T11:40:23;7.55;;;2.38;;
34481;SDS011;20720;48.886;9.388;2023-06-14T11:42:49;5.03;;;2.22;;
34481;SDS011;20720;48.886;9.388;2023-06-14T11:45:15;9.13;;;2.10;;
34481;SDS011;20720;48.886;9.388;2023-06-14T11:47:40;4.30;;;2.05;;
34481;SDS011;20720;48.886;9.388;2023-06-14T11:50:06;3.33;;;1.85;;
34481;SDS011;20720;48.886;9.388;2023-06-14T11:52:36;4.07;;;1.83;;
34481;SDS011;20720;48.886;9.388;2023-06-14T11:55:02;8.32;;;2.03;;
34481;SDS011;20720;48.886;9.388;2023-06-14T11:57:34;3.28;;;2.08;;
34481;SDS011;20720;48.886;9.388;2023-06-14T12:00:03;4.22;;;1.90;;
34481;SDS011;20720;48.886;9.388;2023-06-14T12:02:36;4.93;;;2.08;;
34481;SDS011;20720;48.886;9.388;2023-06-14T12:05:05;3.25;;;2.05;;
34481;SDS011;20720;48.886;9.388;2023-06-14T12:07:32;4.57;;;2.15;;
34481;SDS011;20720;48.886;9.388;2023-06-14T12:12:26;2.57;;;1.90;;
34481;SDS011;20720;48.886;9.388;2023-06-14T12:14:52;3.70;;;2.00;;
34481;SDS011;20720;48.886;9.388;2023-06-14T12:17:18;3.63;;;2.10;;
34481;SDS011;20720;48.886;9.388;2023-06-14T12:19:48;4.68;;;2.00;;
34481;SDS011;20720;48.886;9.388;2023-06-14T12:22:14;3.13;;;2.03;;
34481;SDS011;20720;48.886;9.388;2023-06-14T12:24:44;3.50;;;1.95;;
34481;SDS011;20720;48.886;9.388;2023-06-14T12:27:10;2.97;;;1.85;;
34481;SDS011;20720;48.886;9.388;2023-06-14T12:29:37;2.80;;;1.90;;
34481;SDS011;20720;48.886;9.388;2023-06-14T12:32:02;3.08;;;1.75;;
34481;SDS011;20720;48.886;9.388;2023-06-14T12:34:27;4.93;;;2.15;;
34481;SDS011;20720;48.886;9.388;2023-06-14T12:36:53;2.77;;;2.17;;
34481;SDS011;20720;48.886;9.388;2023-06-14T12:39:19;3.45;;;2.03;;
34481;SDS011;20720;48.886;9.388;2023-06-14T12:41:45;3.60;;;1.80;;
34481;SDS011;20720;48.886;9.388;2023-06-14T12:44:11;4.38;;;1.85;;
34481;SDS011;20720;48.886;9.388;2023-06-14T12:46:37;3.10;;;2.05;;
34481;SDS011;20720;48.886;9.388;2023-06-14T12:49:04;4.05;;;2.00;;
34481;SDS011;20720;48.886;9.388;2023-06-14T12:51:30;2.80;;;2.15;;
34481;SDS011;20720;48.886;9.388;2023-06-14T12:53:55;3.65;;;1.98;;
34481;SDS011;20720;48.886;9.388;2023-06-14T12:56:21;2.70;;;1.73;;
34481;SDS011;20720;48.886;9.388;2023-06-14T12:58:46;4.15;;;2.17;;
34481;SDS011;20720;48.886;9.388;2023-06-14T13:01:11;3.03;;;1.90;;
34481;SDS011;20720;48.886;9.388;2023-06-14T13:03:36;4.30;;;2.10;;
34481;SDS011;20720;48.886;9.388;2023-06-14T13:06:02;3.17;;;2.00;;
34481;SDS011;20720;48.886;9.388;2023-06-14T13:08:29;2.60;;;2.03;;
34481;SDS011;20720;48.886;9.388;2023-06-14T13:10:55;3.10;;;1.65;;
34481;SDS011;20720;48.886;9.388;2023-06-14T13:13:20;2.92;;;2.05;;
34481;SDS011;20720;48.886;9.388;2023-06-14T13:15:45;4.90;;;2.27;;
34481;SDS011;20720;48.886;9.388;2023-06-14T13:18:11;3.63;;;2.13;;
34481;SDS011;20720;48.886;9.388;2023-06-14T13:20:38;6.32;;;2.15;;
34481;SDS011;20720;48.886;9.388;2023-06-14T13:23:04;2.95;;;1.90;;
34481;SDS011;20720;48.886;9.388;2023-06-14T13:25:32;7.40;;;2.20;;
34481;SDS011;20720;48.886;9.388;2023-06-14T13:27:59;2.70;;;1.77;;
34481;SDS011;20720;48.886;9.388;2023-06-14T13:30:24;2.95;;;1.90;;
34481;SDS011;20720;48.886;9.388;2023-06-14T13:32:49;3.47;;;1.77;;
34481;SDS011;20720;48.886;9.388;2023-06-14T13:35:16;2.95;;;1.90;;
34481;SDS011;20720;48.886;9.388;2023-06-14T13:37:43;3.40;;;1.98;;
34481;SDS011;20720;48.886;9.388;2023-06-14T13:40:08;2.58;;;1.85;;
34481;SDS011;20720;48.886;9.388;2023-06-14T13:42:34;3.65;;;1.88;;
34481;SDS011;20720;48.886;9.388;2023-06-14T13:45:00;3.88;;;1.92;;
34481;SDS011;20720;48.886;9.388;2023-06-14T13:47:26;3.05;;;2.00;;
34481;SDS011;20720;48.886;9.388;2023-06-14T13:49:51;4.80;;;1.80;;
34481;SDS011;20720;48.886;9.388;2023-06-14T13:52:16;2.80;;;2.10;;
34481;SDS011;20720;48.886;9.388;2023-06-14T13:54:41;3.17;;;1.83;;
34481;SDS011;20720;48.886;9.388;2023-06-14T13:57:07;3.67;;;1.80;;
34481;SDS011;20720;48.886;9.388;2023-06-14T13:59:32;3.40;;;2.15;;
34481;SDS011;20720;48.886;9.388;2023-06-14T14:01:58;3.25;;;2.00;;
34481;SDS011;20720;48.886;9.388;2023-06-14T14:04:23;5.93;;;2.10;;
34481;SDS011;20720;48.886;9.388;2023-06-14T14:06:48;5.03;;;2.23;;
34481;SDS011;20720;48.886;9.388;2023-06-14T14:09:14;4.50;;;2.10;;
34481;SDS011;20720;48.886;9.388;2023-06-14T14:11:39;3.20;;;1.63;;
34481;SDS011;20720;48.886;9.388;2023-06-14T14:14:06;4.18;;;1.88;;
34481;SDS011;20720;48.886;9.388;2023-06-14T14:16:31;2.72;;;1.67;;
34481;SDS011;20720;48.886;9.388;2023-06-14T14:18:57;4.70;;;2.10;;
34481;SDS011;20720;48.886;9.388;2023-06-14T14:21:22;3.72;;;1.92;;
34481;SDS011;20720;48.886;9.388;2023-06-14T14:23:48;3.30;;;2.13;;
34481;SDS011;20720;48.886;9.388;2023-06-14T14:26:14;6.47;;;1.70;;
34481;SDS011;20720;48.886;9.388;2023-06-14T14:28:41;3.05;;;1.98;;
34481;SDS011;20720;48.886;9.388;2023-06-14T14:31:06;5.57;;;1.93;;
34481;SDS011;20720;48.886;9.388;2023-06-14T14:33:31;4.05;;;1.77;;
34481;SDS011;20720;48.886;9.388;2023-06-14T14:35:56;3.37;;;1.73;;
34481;SDS011;20720;48.886;9.388;2023-06-14T14:38:22;2.63;;;1.70;;
34481;SDS011;20720;48.886;9.388;2023-06-14T14:40:47;4.28;;;1.85;;
34481;SDS011;20720;48.886;9.388;2023-06-14T14:43:12;3.20;;;1.58;;
34481;SDS011;20720;48.886;9.388;2023-06-14T14:45:38;3.47;;;1.73;;
34481;SDS011;20720;48.886;9.388;2023-06-14T14:48:03;3.08;;;2.05;;
34481;SDS011;20720;48.886;9.388;2023-06-14T14:50:29;2.63;;;1.63;;
34481;SDS011;20720;48.886;9.388;2023-06-14T14:52:55;3.33;;;1.77;;
34481;SDS011;20720;48.886;9.388;2023-06-14T14:55:21;3.30;;;1.88;;
34481;SDS011;20720;48.886;9.388;2023-06-14T14:57:46;2.92;;;1.60;;
34481;SDS011;20720;48.886;9.388;2023-06-14T15:00:12;3.75;;;1.70;;